Time;durP1;ratioP1;P1;durP2;ratioP2;P2;SDS_P1;SDS_P2;PMS_P1;PMS_P2;Temp;Humidity;BMP_temperature;BMP_pressure;BME280_temperature;BME280_humidity;BME280_pressure;Samples;Min_cycle;Max_cycle;Signal;HPM_P1;HPM_P2
2023/02/02 00:00:07;;;;;;;;;;;;;;;4.79;75.75;98264.13;4935751;29;19973;-65
2023/02/02 00:02:33;;;;;;;;;;;;;;;4.77;75.71;98284.94;4926398;29;19973;-66
2023/02/02 00:04:58;;;;;;;;;;;;;;;4.76;75.87;98257.28;4934123;29;19915;-64
2023/02/02 00:07:23;;;;;;;;;;;;;;;4.81;76.37;98263.13;4927343;29;19919;-64
2023/02/02 00:09:48;;;;;;;;;;;;;;;4.78;77.12;98252.84;4945046;29;19923;-65
2023/02/02 00:12:13;;;;;;;;;;;;;;;4.84;76.58;98255.19;4925819;29;19919;-65
2023/02/02 00:14:39;;;;;;;;;;;;;;;4.82;77.08;98227.56;4946976;29;19915;-65
2023/02/02 00:17:04;;;;;;;;;;;;;;;4.81;77.11;98233.69;4918560;29;19925;-65
2023/02/02 00:19:30;;;;;;;;;;;;;;;4.85;77.38;98228.31;4933232;29;20389;-65
2023/02/02 00:21:55;;;;;;;;;;;;;;;4.88;76.12;98240.28;4932246;29;19970;-65
2023/02/02 00:24:20;;;;;;;;;;;;;;;4.85;76.05;98223.09;4929318;29;19919;-65
2023/02/02 00:26:50;;;;;;;;;;;;;;;4.83;77.16;98232.72;4933415;29;19966;-65
2023/02/02 00:29:17;;;;;;;;;;;;;;;4.82;76.88;98223.25;4933231;29;19946;-65
2023/02/02 00:31:42;;;;;;;;;;;;;;;4.81;77.06;98210.31;4933791;29;20410;-66
2023/02/02 00:34:09;;;;;;;;;;;;;;;4.89;76.71;98229.00;4946914;29;20006;-65
2023/02/02 00:36:34;;;;;;;;;;;;;;;4.89;76.36;98221.22;4946685;29;19954;-65
2023/02/02 00:38:59;;;;;;;;;;;;;;;4.85;76.50;98228.31;4923277;29;19986;-65
2023/02/02 00:41:25;;;;;;;;;;;;;;;4.86;77.41;98214.38;4925336;29;19930;-65
2023/02/02 00:45:14;;;;;;;;;;;;;;;4.87;77.04;98226.47;4924663;29;19919;-65
2023/02/02 00:46:37;;;;;;;;;;;;;;;4.89;76.96;98235.03;4934756;29;20180;-65
2023/02/02 00:49:02;;;;;;;;;;;;;;;4.89;77.62;98240.25;4933715;29;19918;-65
2023/02/02 00:51:28;;;;;;;;;;;;;;;4.86;77.36;98255.97;4930033;29;19991;-66
2023/02/02 00:53:53;;;;;;;;;;;;;;;4.85;77.38;98243.91;4934674;29;19914;-65
2023/02/02 00:56:18;;;;;;;;;;;;;;;4.81;77.69;98236.28;4934956;29;19922;-65
2023/02/02 00:58:43;;;;;;;;;;;;;;;4.76;78.17;98239.09;4934679;29;19915;-65
2023/02/02 01:01:16;;;;;;;;;;;;;;;4.71;79.56;98222.84;4933267;29;20290;-65
2023/02/02 01:03:41;;;;;;;;;;;;;;;4.75;78.84;98229.63;4930782;29;20013;-65
2023/02/02 01:06:06;;;;;;;;;;;;;;;4.70;80.13;98235.00;4933028;29;20009;-65
2023/02/02 01:08:31;;;;;;;;;;;;;;;4.70;80.02;98236.75;4934380;29;19997;-65
2023/02/02 01:10:58;;;;;;;;;;;;;;;4.67;79.05;98239.50;4932423;29;19962;-65
2023/02/02 01:13:23;;;;;;;;;;;;;;;4.70;80.10;98249.75;4934537;29;19914;-66
2023/02/02 01:15:48;;;;;;;;;;;;;;;4.69;79.59;98232.50;4933072;29;19966;-65
2023/02/02 01:18:13;;;;;;;;;;;;;;;4.69;79.24;98253.28;4934217;29;19918;-66
2023/02/02 01:20:38;;;;;;;;;;;;;;;4.61;79.76;98247.56;4932510;29;20009;-65
2023/02/02 01:23:04;;;;;;;;;;;;;;;4.62;79.88;98247.50;4941934;28;20074;-65
2023/02/02 01:25:31;;;;;;;;;;;;;;;4.64;80.71;98240.47;4927451;29;20010;-65
2023/02/02 01:27:56;;;;;;;;;;;;;;;4.68;79.69;98251.56;4931894;29;19915;-66
2023/02/02 01:30:21;;;;;;;;;;;;;;;4.63;79.91;98256.13;4934713;29;19925;-65
2023/02/02 01:32:46;;;;;;;;;;;;;;;4.62;80.45;98252.69;4931549;29;19923;-65
2023/02/02 01:35:12;;;;;;;;;;;;;;;4.60;80.34;98238.91;4933663;29;20037;-65
2023/02/02 01:37:37;;;;;;;;;;;;;;;4.63;80.53;98235.34;4936505;29;19919;-65
2023/02/02 01:40:03;;;;;;;;;;;;;;;4.60;80.24;98254.50;4938311;29;19922;-66
2023/02/02 01:42:28;;;;;;;;;;;;;;;4.55;80.45;98281.63;4935770;29;20323;-65
2023/02/02 01:45:08;;;;;;;;;;;;;;;4.57;80.63;98274.59;4943331;29;20302;-65
2023/02/02 01:47:36;;;;;;;;;;;;;;;4.53;80.79;98272.13;4937780;29;20469;-65
2023/02/02 01:50:01;;;;;;;;;;;;;;;4.58;81.64;98291.88;4937154;29;19997;-65
2023/02/02 01:52:26;;;;;;;;;;;;;;;4.55;79.99;98286.81;4936046;29;20014;-65
2023/02/02 01:54:52;;;;;;;;;;;;;;;4.47;80.61;98303.56;4935643;29;20001;-65
2023/02/02 01:57:29;;;;;;;;;;;;;;;4.50;80.56;98303.41;4936486;29;20006;-65
2023/02/02 01:59:55;;;;;;;;;;;;;;;4.48;80.86;98300.06;4938302;29;20013;-65
2023/02/02 02:02:20;;;;;;;;;;;;;;;4.50;80.85;98295.63;4936784;29;20013;-67
2023/02/02 02:04:45;;;;;;;;;;;;;;;4.51;80.47;98294.72;4918380;29;20410;-64
2023/02/02 02:07:10;;;;;;;;;;;;;;;4.57;80.31;98305.75;4936228;29;20290;-65
2023/02/02 02:09:35;;;;;;;;;;;;;;;4.49;81.08;98309.53;4936491;29;20323;-65
2023/02/02 02:12:01;;;;;;;;;;;;;;;4.49;81.18;98327.72;4937934;29;19914;-65
2023/02/02 02:17:31;;;;;;;;;;;;;;;4.46;82.04;98346.00;4933482;29;19975;-64
2023/02/02 02:28:27;;;;;;;;;;;;;;;4.15;83.45;98309.25;4936992;29;19976;-65
2023/02/02 02:30:58;;;;;;;;;;;;;;;4.31;82.73;98315.50;4936423;29;20328;-65
2023/02/02 02:33:29;;;;;;;;;;;;;;;4.57;84.41;98305.75;4937360;29;19915;-65
2023/02/02 02:36:13;;;;;;;;;;;;;;;4.81;84.83;98299.50;4919118;29;19919;-64
2023/02/02 02:38:41;;;;;;;;;;;;;;;5.03;83.36;98321.97;4932394;29;19923;-65
2023/02/02 02:41:10;;;;;;;;;;;;;;;5.22;83.38;98304.59;4937333;29;19930;-66
2023/02/02 02:43:47;;;;;;;;;;;;;;;4.98;77.70;98343.78;4935950;29;20302;-65
2023/02/02 02:46:12;;;;;;;;;;;;;;;4.50;77.75;98325.94;4915737;29;20440;-65
2023/02/02 02:48:37;;;;;;;;;;;;;;;4.23;80.16;98346.97;4930769;29;20058;-65
2023/02/02 02:51:04;;;;;;;;;;;;;;;3.79;78.49;98344.41;4935933;29;20275;-64
2023/02/02 02:53:29;;;;;;;;;;;;;;;3.65;79.00;98361.38;4937097;29;20385;-64
2023/02/02 02:55:57;;;;;;;;;;;;;;;3.21;81.34;98371.66;4933256;29;19919;-64
2023/02/02 02:58:27;;;;;;;;;;;;;;;3.14;82.12;98367.63;4934922;29;19962;-63
2023/02/02 03:00:52;;;;;;;;;;;;;;;3.18;83.83;98372.63;4935538;29;19915;-64
2023/02/02 03:03:26;;;;;;;;;;;;;;;2.85;83.02;98366.88;4935944;29;19929;-64
2023/02/02 03:06:03;;;;;;;;;;;;;;;2.80;83.43;98372.22;4934884;29;20380;-63
2023/02/02 03:08:30;;;;;;;;;;;;;;;2.81;83.36;98373.06;4929667;29;19958;-64
2023/02/02 03:10:56;;;;;;;;;;;;;;;2.69;83.80;98376.09;4935392;29;19915;-63
2023/02/02 03:13:21;;;;;;;;;;;;;;;2.53;84.72;98379.19;4935789;29;19966;-63
2023/02/02 03:15:46;;;;;;;;;;;;;;;2.33;85.45;98379.84;4918122;29;20001;-65
2023/02/02 03:18:12;;;;;;;;;;;;;;;2.25;86.08;98378.41;4927252;29;20010;-63
2023/02/02 03:20:37;;;;;;;;;;;;;;;2.25;86.73;98381.84;4934584;29;20000;-63
2023/02/02 03:23:03;;;;;;;;;;;;;;;2.23;86.32;98382.78;4935209;29;20013;-64
2023/02/02 03:25:28;;;;;;;;;;;;;;;2.16;87.36;98391.63;4935836;29;19919;-64
2023/02/02 03:27:53;;;;;;;;;;;;;;;2.16;87.18;98409.75;4934953;29;19921;-63
2023/02/02 03:30:18;;;;;;;;;;;;;;;2.14;88.18;98400.28;4934436;29;19919;-63
2023/02/02 03:32:44;;;;;;;;;;;;;;;2.02;88.36;98402.41;4935192;29;19921;-65
2023/02/02 03:35:09;;;;;;;;;;;;;;;2.13;89.79;98377.03;4935748;29;20339;-63
2023/02/02 03:37:34;;;;;;;;;;;;;;;2.40;90.48;98382.22;4935950;29;19982;-63
2023/02/02 03:39:59;;;;;;;;;;;;;;;2.52;87.82;98390.44;4933010;29;19930;-64
2023/02/02 03:42:25;;;;;;;;;;;;;;;2.60;87.63;98408.31;4935997;29;19926;-64
2023/02/02 03:44:50;;;;;;;;;;;;;;;2.70;88.10;98393.31;4936240;29;19986;-64
2023/02/02 03:47:15;;;;;;;;;;;;;;;2.71;86.98;98395.00;4926159;29;19954;-64
2023/02/02 03:49:40;;;;;;;;;;;;;;;2.76;86.81;98393.97;4933929;29;20025;-64
2023/02/02 03:52:05;;;;;;;;;;;;;;;2.52;86.69;98393.03;4934127;29;19919;-64
2023/02/02 03:54:31;;;;;;;;;;;;;;;2.68;88.70;98382.16;4934719;29;19969;-64
2023/02/02 03:56:56;;;;;;;;;;;;;;;3.03;90.35;98384.38;4933790;29;19926;-64
2023/02/02 03:59:21;;;;;;;;;;;;;;;3.32;90.41;98380.75;4936056;29;20383;-65
2023/02/02 04:01:46;;;;;;;;;;;;;;;3.61;88.59;98377.97;4932898;29;20434;-64
2023/02/02 04:04:12;;;;;;;;;;;;;;;3.74;87.97;98382.63;4935675;29;19919;-65
2023/02/02 04:06:37;;;;;;;;;;;;;;;3.94;86.60;98379.28;4926378;29;19962;-64
2023/02/02 04:09:02;;;;;;;;;;;;;;;4.08;85.71;98380.47;4945175;29;19958;-65
2023/02/02 04:11:27;;;;;;;;;;;;;;;4.14;84.77;98365.50;4906861;29;19961;-64
2023/02/02 04:13:52;;;;;;;;;;;;;;;4.19;83.93;98368.75;4933275;29;19954;-64
2023/02/02 04:16:18;;;;;;;;;;;;;;;4.25;83.90;98365.06;4928651;29;19958;-64
2023/02/02 04:18:43;;;;;;;;;;;;;;;4.38;85.35;98358.47;4932512;29;19953;-65
2023/02/02 04:21:08;;;;;;;;;;;;;;;4.46;83.94;98352.97;4934590;29;19915;-65
2023/02/02 04:23:33;;;;;;;;;;;;;;;4.48;83.97;98344.22;4934767;29;19990;-64
2023/02/02 04:25:59;;;;;;;;;;;;;;;4.46;82.58;98340.81;4933286;29;20018;-64
2023/02/02 04:28:24;;;;;;;;;;;;;;;4.41;81.93;98345.38;4935202;29;19919;-65
2023/02/02 04:30:50;;;;;;;;;;;;;;;4.32;81.74;98337.94;4934236;29;19915;-66
2023/02/02 04:33:15;;;;;;;;;;;;;;;4.40;83.33;98342.81;4930438;29;19946;-64
2023/02/02 04:35:41;;;;;;;;;;;;;;;4.41;83.56;98347.97;4934674;29;19922;-65
2023/02/02 04:38:06;;;;;;;;;;;;;;;4.45;83.46;98352.13;4933882;29;20001;-65
2023/02/02 04:40:31;;;;;;;;;;;;;;;4.45;82.87;98349.53;4935435;29;20430;-64
2023/02/02 04:42:57;;;;;;;;;;;;;;;4.53;83.67;98347.44;4930922;29;19927;-65
2023/02/02 04:45:22;;;;;;;;;;;;;;;4.52;83.33;98356.16;4933227;29;19923;-64
2023/02/02 04:47:47;;;;;;;;;;;;;;;4.49;84.30;98351.09;4933718;29;20498;-65
2023/02/02 04:50:12;;;;;;;;;;;;;;;4.32;84.06;98361.31;4934060;29;20366;-65
2023/02/02 04:52:38;;;;;;;;;;;;;;;4.16;85.23;98362.84;4933326;29;20559;-64
2023/02/02 04:55:03;;;;;;;;;;;;;;;4.10;86.50;98365.72;4935342;29;19958;-65
2023/02/02 04:57:28;;;;;;;;;;;;;;;4.04;87.75;98375.41;4938497;29;19954;-65
2023/02/02 04:59:53;;;;;;;;;;;;;;;3.97;88.76;98378.31;4933865;29;19923;-64
2023/02/02 05:02:18;;;;;;;;;;;;;;;3.88;89.69;98389.03;4933699;29;19923;-64
2023/02/02 05:04:44;;;;;;;;;;;;;;;3.81;90.35;98393.63;4923937;29;19919;-64
2023/02/02 05:07:10;;;;;;;;;;;;;;;3.80;91.54;98387.59;4932913;29;19935;-64
2023/02/02 05:09:35;;;;;;;;;;;;;;;3.80;91.71;98379.81;4933718;29;19962;-64
2023/02/02 05:12:00;;;;;;;;;;;;;;;3.93;93.27;98380.19;4935385;29;19914;-65
2023/02/02 05:14:25;;;;;;;;;;;;;;;4.15;93.08;98384.53;4930511;29;20326;-64
2023/02/02 05:16:52;;;;;;;;;;;;;;;4.37;92.20;98381.91;4935966;29;20326;-66
2023/02/02 05:19:17;;;;;;;;;;;;;;;4.63;91.46;98378.25;4938673;29;19918;-66
2023/02/02 05:21:43;;;;;;;;;;;;;;;4.82;89.87;98376.56;4938743;29;19973;-66
2023/02/02 05:24:09;;;;;;;;;;;;;;;5.01;89.09;98374.00;4937496;29;19923;-64
2023/02/02 05:26:34;;;;;;;;;;;;;;;5.15;87.74;98382.06;4936017;29;19981;-64
2023/02/02 05:28:59;;;;;;;;;;;;;;;5.26;86.99;98378.97;4934567;29;20379;-64
2023/02/02 05:31:25;;;;;;;;;;;;;;;5.37;86.22;98381.13;4929533;29;20378;-64
2023/02/02 05:33:50;;;;;;;;;;;;;;;5.44;85.52;98387.75;4938488;29;19921;-64
2023/02/02 05:36:15;;;;;;;;;;;;;;;5.49;85.22;98390.97;4935653;29;19919;-63
2023/02/02 05:38:40;;;;;;;;;;;;;;;5.41;83.05;98393.06;4935497;29;19950;-64
2023/02/02 05:41:05;;;;;;;;;;;;;;;5.46;83.91;98391.94;4921265;29;19953;-65
2023/02/02 05:43:31;;;;;;;;;;;;;;;5.53;84.71;98396.88;4936708;29;20366;-64
2023/02/02 05:45:56;;;;;;;;;;;;;;;5.82;87.30;98403.38;4917139;29;20605;-65
2023/02/02 05:48:21;;;;;;;;;;;;;;;6.20;85.51;98399.00;4934077;29;20299;-64
2023/02/02 05:50:48;;;;;;;;;;;;;;;6.43;80.38;98405.69;4933782;29;20342;-64
2023/02/02 05:53:13;;;;;;;;;;;;;;;6.00;77.26;98412.94;4917994;29;19919;-64
2023/02/02 05:55:38;;;;;;;;;;;;;;;5.58;78.43;98406.16;4917323;29;19918;-64
2023/02/02 05:58:04;;;;;;;;;;;;;;;5.22;78.53;98413.84;4932345;29;19923;-64
2023/02/02 06:00:29;;;;;;;;;;;;;;;4.95;80.13;98416.69;4936512;29;20010;-64
2023/02/02 06:02:54;;;;;;;;;;;;;;;4.68;80.27;98428.25;4927858;29;20002;-64
2023/02/02 06:05:19;;;;;;;;;;;;;;;4.45;81.75;98424.84;4937156;29;20005;-64
2023/02/02 06:07:44;;;;;;;;;;;;;;;4.25;82.11;98427.41;4934483;29;20007;-63
2023/02/02 06:10:10;;;;;;;;;;;;;;;4.07;82.84;98441.94;4936120;29;19923;-64
2023/02/02 06:12:35;;;;;;;;;;;;;;;3.96;82.76;98433.72;4929081;29;19938;-63
2023/02/02 06:15:00;;;;;;;;;;;;;;;3.81;83.08;98441.16;4936426;29;19925;-63
2023/02/02 06:17:25;;;;;;;;;;;;;;;3.67;83.51;98443.44;4935596;29;19914;-64
2023/02/02 06:19:51;;;;;;;;;;;;;;;3.53;83.57;98446.53;4935494;29;19958;-63
2023/02/02 06:22:16;;;;;;;;;;;;;;;3.46;84.32;98449.41;4934228;29;19950;-63
2023/02/02 06:24:41;;;;;;;;;;;;;;;3.39;85.00;98455.72;4935166;29;19919;-64
2023/02/02 06:27:06;;;;;;;;;;;;;;;3.33;85.08;98451.59;4934770;29;19926;-63
2023/02/02 06:29:32;;;;;;;;;;;;;;;3.25;85.08;98446.66;4935779;29;19919;-64
2023/02/02 06:31:57;;;;;;;;;;;;;;;3.23;85.77;98458.81;4937614;29;20338;-65
2023/02/02 06:34:22;;;;;;;;;;;;;;;3.19;85.59;98456.41;4933466;29;19919;-64
2023/02/02 06:36:47;;;;;;;;;;;;;;;3.08;85.75;98455.03;4936279;29;19918;-64
2023/02/02 06:39:13;;;;;;;;;;;;;;;3.07;86.24;98458.53;4934785;29;19922;-64
2023/02/02 06:41:39;;;;;;;;;;;;;;;2.91;85.65;98467.72;4937166;29;19927;-64
2023/02/02 06:44:04;;;;;;;;;;;;;;;2.71;86.39;98460.59;4935944;29;19915;-64
2023/02/02 06:46:29;;;;;;;;;;;;;;;2.74;87.06;98464.84;4936650;29;19926;-64
2023/02/02 06:48:55;;;;;;;;;;;;;;;2.79;87.33;98468.13;4935283;29;20368;-65
2023/02/02 06:51:20;;;;;;;;;;;;;;;2.80;88.06;98468.06;4935412;29;19926;-64
2023/02/02 06:53:48;;;;;;;;;;;;;;;3.20;93.13;98469.34;4919869;29;19919;-64
2023/02/02 06:56:13;;;;;;;;;;;;;;;3.16;88.02;98467.72;4933413;29;19915;-64
2023/02/02 06:58:38;;;;;;;;;;;;;;;3.05;87.98;98470.69;4935758;29;20453;-65
2023/02/02 07:01:07;;;;;;;;;;;;;;;2.96;87.30;98477.91;4933737;29;19975;-64
2023/02/02 07:03:32;;;;;;;;;;;;;;;2.91;87.48;98472.06;4935042;29;19967;-65
2023/02/02 07:05:58;;;;;;;;;;;;;;;2.90;88.84;98476.41;4932387;29;19954;-64
2023/02/02 07:08:23;;;;;;;;;;;;;;;2.90;88.72;98481.56;4933418;29;19925;-65
2023/02/02 07:10:48;;;;;;;;;;;;;;;2.93;89.08;98484.06;4934588;29;19995;-64
2023/02/02 07:13:13;;;;;;;;;;;;;;;2.93;88.81;98475.44;4935660;29;19922;-64
2023/02/02 07:15:39;;;;;;;;;;;;;;;2.85;89.05;98484.31;4935660;29;20014;-64
2023/02/02 07:18:04;;;;;;;;;;;;;;;2.88;88.65;98488.53;4936481;29;19922;-64
2023/02/02 07:20:29;;;;;;;;;;;;;;;2.84;88.76;98486.94;4935622;29;19915;-64
2023/02/02 07:22:54;;;;;;;;;;;;;;;2.77;89.12;98488.06;4935207;29;20442;-64
2023/02/02 07:25:20;;;;;;;;;;;;;;;2.76;89.88;98497.56;4936679;29;20349;-64
2023/02/02 07:27:46;;;;;;;;;;;;;;;2.74;89.43;98506.28;4935361;29;20392;-64
2023/02/02 07:30:12;;;;;;;;;;;;;;;2.80;89.93;98491.38;4936529;29;20350;-63
2023/02/02 07:32:37;;;;;;;;;;;;;;;2.88;89.75;98492.88;4935010;29;19914;-64
2023/02/02 07:35:02;;;;;;;;;;;;;;;2.92;89.77;98492.72;4934801;29;19914;-64
2023/02/02 07:37:27;;;;;;;;;;;;;;;2.97;90.25;98490.00;4936069;29;19921;-64
2023/02/02 07:39:53;;;;;;;;;;;;;;;3.01;89.02;98489.84;4936322;29;19954;-64
2023/02/02 07:42:18;;;;;;;;;;;;;;;3.03;89.62;98485.47;4919179;29;20306;-64
2023/02/02 07:44:43;;;;;;;;;;;;;;;3.03;89.31;98482.88;4935111;29;20301;-65
2023/02/02 07:47:08;;;;;;;;;;;;;;;3.07;89.34;98489.63;4935904;29;19919;-64
2023/02/02 07:49:34;;;;;;;;;;;;;;;3.07;88.73;98488.78;4935863;29;19942;-64
2023/02/02 07:51:59;;;;;;;;;;;;;;;3.05;89.30;98473.28;4935988;29;19919;-64
2023/02/02 07:54:24;;;;;;;;;;;;;;;3.06;89.27;98476.72;4936152;29;19933;-64
2023/02/02 07:56:49;;;;;;;;;;;;;;;3.09;89.60;98477.44;4936052;29;19915;-64
2023/02/02 07:59:14;;;;;;;;;;;;;;;3.14;89.72;98474.72;4935772;29;19990;-65
2023/02/02 08:01:40;;;;;;;;;;;;;;;3.16;89.70;98479.84;4934671;29;19919;-64
2023/02/02 08:04:05;;;;;;;;;;;;;;;3.19;89.68;98482.31;4934639;29;19919;-64
2023/02/02 08:06:39;;;;;;;;;;;;;;;3.20;88.79;98481.41;4934607;29;19969;-64
2023/02/02 08:09:06;;;;;;;;;;;;;;;3.18;88.58;98476.31;4935833;29;19922;-65
2023/02/02 08:11:31;;;;;;;;;;;;;;;3.20;88.89;98481.41;4934821;29;20401;-64
2023/02/02 08:13:57;;;;;;;;;;;;;;;3.23;89.56;98481.31;4935646;29;20406;-65
2023/02/02 08:16:22;;;;;;;;;;;;;;;3.26;89.18;98476.03;4935713;29;20301;-64
2023/02/02 08:18:48;;;;;;;;;;;;;;;3.28;90.04;98476.84;4934340;29;20395;-65
2023/02/02 08:21:13;;;;;;;;;;;;;;;3.31;89.58;98479.31;4934279;29;20010;-65
2023/02/02 08:23:39;;;;;;;;;;;;;;;3.34;90.22;98481.81;4932962;29;19933;-64
2023/02/02 08:26:08;;;;;;;;;;;;;;;3.37;89.78;98484.28;4935469;29;20371;-65
2023/02/02 08:28:35;;;;;;;;;;;;;;;3.40;89.78;98481.56;4935287;29;19961;-64
2023/02/02 08:31:20;;;;;;;;;;;;;;;3.43;90.31;98484.06;4934502;29;20351;-64
2023/02/02 08:33:45;;;;;;;;;;;;;;;3.44;89.99;98488.38;4934116;29;19958;-64
2023/02/02 08:36:11;;;;;;;;;;;;;;;3.47;90.39;98488.22;4935357;29;19958;-66
2023/02/02 08:38:36;;;;;;;;;;;;;;;3.48;89.80;98487.34;4935388;29;20354;-65
2023/02/02 08:41:05;;;;;;;;;;;;;;;3.50;89.52;98477.75;4935250;29;19914;-64
2023/02/02 08:43:30;;;;;;;;;;;;;;;3.50;89.57;98482.94;4933919;29;20310;-65
2023/02/02 08:45:55;;;;;;;;;;;;;;;3.53;89.66;98485.44;4934671;29;19915;-64
2023/02/02 08:48:20;;;;;;;;;;;;;;;3.53;89.98;98482.84;4934818;29;19915;-65
2023/02/02 08:50:55;;;;;;;;;;;;;;;3.54;89.39;98489.75;4935215;29;19919;-65
2023/02/02 08:53:20;;;;;;;;;;;;;;;3.53;88.88;98494.97;4935507;29;19947;-65
2023/02/02 08:55:45;;;;;;;;;;;;;;;3.61;89.47;98494.69;4935241;29;20391;-64
2023/02/02 08:58:11;;;;;;;;;;;;;;;3.62;90.26;98481.69;4933693;29;19915;-65
2023/02/02 09:00:36;;;;;;;;;;;;;;;3.67;91.28;98491.88;4935089;29;20386;-65
2023/02/02 09:03:01;;;;;;;;;;;;;;;3.70;90.99;98494.38;4933775;29;20446;-65
2023/02/02 09:05:26;;;;;;;;;;;;;;;3.84;92.60;98492.09;4933925;29;19938;-65
2023/02/02 09:07:51;;;;;;;;;;;;;;;3.94;92.84;98488.28;4933599;29;19915;-64
2023/02/02 09:10:17;;;;;;;;;;;;;;;4.05;93.16;98490.47;4933857;29;19921;-65
2023/02/02 09:12:42;;;;;;;;;;;;;;;4.16;93.30;98492.66;4935022;29;19914;-63
2023/02/02 09:15:07;;;;;;;;;;;;;;;4.28;93.12;98487.00;4933601;29;20339;-64
2023/02/02 09:17:33;;;;;;;;;;;;;;;4.36;92.54;98495.31;4933453;29;19915;-64
2023/02/02 09:19:58;;;;;;;;;;;;;;;4.42;92.44;98492.50;4934936;29;20410;-65
2023/02/02 09:22:23;;;;;;;;;;;;;;;4.53;91.54;98494.66;4933595;29;20006;-64
2023/02/02 09:24:48;;;;;;;;;;;;;;;4.59;90.74;98485.81;4934878;29;20017;-65
2023/02/02 09:27:13;;;;;;;;;;;;;;;4.60;91.20;98482.28;4933434;29;20013;-65
2023/02/02 09:29:39;;;;;;;;;;;;;;;4.61;91.38;98494.34;4934862;29;20022;-64
2023/02/02 09:32:04;;;;;;;;;;;;;;;4.67;91.22;98491.53;4933513;29;20260;-64
2023/02/02 09:34:29;;;;;;;;;;;;;;;4.71;91.08;98490.50;4933642;29;20367;-64
2023/02/02 09:36:54;;;;;;;;;;;;;;;4.73;90.87;98486.09;4934806;29;20327;-64
2023/02/02 09:39:20;;;;;;;;;;;;;;;4.77;91.05;98490.25;4933438;29;20383;-64
2023/02/02 09:41:53;;;;;;;;;;;;;;;4.80;90.64;98497.91;4934584;29;20383;-65
2023/02/02 09:44:18;;;;;;;;;;;;;;;4.81;90.84;98499.59;4933668;29;19915;-64
2023/02/02 09:46:49;;;;;;;;;;;;;;;4.88;90.87;98493.25;4933496;29;19971;-63
2023/02/02 09:49:16;;;;;;;;;;;;;;;4.86;91.13;98510.69;4934321;29;19922;-64
2023/02/02 09:51:45;;;;;;;;;;;;;;;4.90;90.97;98496.63;4933476;29;19970;-65
2023/02/02 09:54:14;;;;;;;;;;;;;;;4.98;89.92;98502.34;4933607;29;19966;-64
2023/02/02 09:56:40;;;;;;;;;;;;;;;4.96;89.89;98506.78;4933406;29;20407;-64
2023/02/02 09:59:06;;;;;;;;;;;;;;;5.02;90.31;98503.06;4936201;29;20080;-65
2023/02/02 10:01:35;;;;;;;;;;;;;;;5.02;90.40;98503.06;4920904;29;19955;-63
2023/02/02 10:04:02;;;;;;;;;;;;;;;5.09;89.55;98501.06;4936821;29;19919;-64
2023/02/02 10:06:44;;;;;;;;;;;;;;;5.10;89.96;98508.81;4936739;29;19977;-63
2023/02/02 10:09:09;;;;;;;;;;;;;;;5.13;90.02;98513.91;4936654;29;19919;-64
2023/02/02 10:12:10;;;;;;;;;;;;;;;5.15;89.93;98513.81;4938003;29;19921;-64
2023/02/02 10:14:35;;;;;;;;;;;;;;;5.16;89.67;98505.97;4897834;29;19916;-64
2023/02/02 10:17:03;;;;;;;;;;;;;;;5.22;89.71;98507.44;4929257;29;19994;-64
2023/02/02 10:19:29;;;;;;;;;;;;;;;5.23;89.78;98497.00;4936654;29;20303;-64
2023/02/02 10:22:00;;;;;;;;;;;;;;;5.27;89.66;98505.53;4936580;29;19919;-63
2023/02/02 10:24:27;;;;;;;;;;;;;;;5.34;88.43;98506.94;4937485;29;19950;-63
2023/02/02 10:26:52;;;;;;;;;;;;;;;5.43;88.46;98505.69;4936567;29;19915;-63
2023/02/02 10:29:23;;;;;;;;;;;;;;;5.45;88.52;98501.28;4936262;29;20399;-63
2023/02/02 10:31:49;;;;;;;;;;;;;;;5.48;88.79;98493.34;4936445;29;19915;-64
2023/02/02 10:34:32;;;;;;;;;;;;;;;5.50;88.53;98498.47;4937596;29;19922;-65
2023/02/02 10:37:16;;;;;;;;;;;;;;;5.61;88.04;98497.13;4936142;29;20359;-63
2023/02/02 10:39:41;;;;;;;;;;;;;;;5.68;88.01;98513.31;4937416;29;19919;-64
2023/02/02 10:42:13;;;;;;;;;;;;;;;5.66;88.00;98502.09;4937368;29;20260;-64
2023/02/02 10:44:44;;;;;;;;;;;;;;;5.71;87.27;98497.53;4936282;29;19954;-63
2023/02/02 10:47:11;;;;;;;;;;;;;;;5.75;88.00;98501.72;4935873;29;20418;-64
2023/02/02 10:49:36;;;;;;;;;;;;;;;5.74;88.14;98500.00;4936160;29;19915;-64
2023/02/02 10:52:11;;;;;;;;;;;;;;;5.72;87.29;98504.44;4937373;29;19979;-64
2023/02/02 10:54:37;;;;;;;;;;;;;;;5.76;87.69;98485.16;4936162;29;19973;-64
2023/02/02 10:57:02;;;;;;;;;;;;;;;5.80;86.15;98491.91;4936835;29;19926;-63
2023/02/02 10:59:34;;;;;;;;;;;;;;;5.87;86.93;98495.09;4935950;29;19915;-64
2023/02/02 11:02:00;;;;;;;;;;;;;;;5.87;86.37;98487.28;4935646;29;20718;-64
2023/02/02 11:07:12;;;;;;;;;;;;;;;5.97;85.51;98490.34;4935534;29;19986;-64
2023/02/02 11:09:38;;;;;;;;;;;;;;;6.02;85.01;98498.78;4919488;29;20013;-64
2023/02/02 11:12:04;;;;;;;;;;;;;;;6.08;85.48;98498.53;4935689;29;19915;-64
2023/02/02 11:14:35;;;;;;;;;;;;;;;6.12;85.11;98480.06;4935498;29;19965;-63
2023/02/02 11:17:01;;;;;;;;;;;;;;;6.22;84.64;98493.50;4935519;29;19922;-65
2023/02/02 11:19:28;;;;;;;;;;;;;;;6.34;84.56;98482.53;4936748;29;20451;-64
2023/02/02 11:21:55;;;;;;;;;;;;;;;6.42;84.21;98487.38;4935478;29;20356;-64
2023/02/02 11:24:21;;;;;;;;;;;;;;;6.43;83.28;98494.28;4936840;29;19946;-63
2023/02/02 11:26:46;;;;;;;;;;;;;;;6.40;83.74;98487.47;4954524;29;19942;-63
2023/02/02 11:29:12;;;;;;;;;;;;;;;6.43;83.86;98504.69;4955998;28;20375;-64
2023/02/02 11:31:38;;;;;;;;;;;;;;;6.46;83.27;98491.53;4945059;28;20066;-64
2023/02/02 11:34:07;;;;;;;;;;;;;;;6.47;83.05;98506.25;4935399;29;20387;-64
2023/02/02 11:36:33;;;;;;;;;;;;;;;6.48;82.75;98507.09;4935403;29;19914;-63
2023/02/02 11:39:13;;;;;;;;;;;;;;;6.46;81.94;98499.34;4934955;29;19938;-63
2023/02/02 11:41:38;;;;;;;;;;;;;;;6.44;82.43;98497.75;4935069;29;20013;-64
2023/02/02 11:44:05;;;;;;;;;;;;;;;6.41;82.23;98499.56;4935077;29;20010;-63
2023/02/02 11:46:33;;;;;;;;;;;;;;;6.38;83.26;98502.31;4936370;29;19921;-65
2023/02/02 11:49:03;;;;;;;;;;;;;;;6.37;82.39;98510.22;4934701;29;20010;-65
2023/02/02 11:51:28;;;;;;;;;;;;;;;6.39;82.37;98509.22;4935022;29;20389;-63
2023/02/02 11:54:01;;;;;;;;;;;;;;;6.41;80.81;98501.34;4934890;29;19922;-64
2023/02/02 11:56:26;;;;;;;;;;;;;;;6.36;81.61;98509.34;4933217;29;19941;-64
2023/02/02 11:58:52;;;;;;;;;;;;;;;6.43;81.70;98499.47;4934404;29;20391;-65
2023/02/02 12:01:30;;;;;;;;;;;;;;;6.46;82.14;98503.72;4935882;29;20398;-63
2023/02/02 12:03:56;;;;;;;;;;;;;;;6.44;82.16;98489.94;4934663;29;19923;-63
2023/02/02 12:06:22;;;;;;;;;;;;;;;6.41;82.49;98490.91;4935733;29;20018;-63
2023/02/02 12:08:47;;;;;;;;;;;;;;;6.36;82.42;98511.09;4933929;29;20013;-64
2023/02/02 12:11:20;;;;;;;;;;;;;;;6.38;81.97;98491.91;4913409;29;20010;-64
2023/02/02 12:13:45;;;;;;;;;;;;;;;6.31;82.23;98520.91;4931241;29;19916;-63
2023/02/02 12:16:23;;;;;;;;;;;;;;;6.36;83.02;98514.56;4918421;29;20352;-64
2023/02/02 12:18:57;;;;;;;;;;;;;;;6.33;83.55;98506.91;4940646;29;19918;-64
2023/02/02 12:21:31;;;;;;;;;;;;;;;6.41;83.56;98506.53;4934291;29;19966;-64
2023/02/02 12:24:06;;;;;;;;;;;;;;;6.42;82.07;98513.44;4932935;29;19927;-63
2023/02/02 12:26:31;;;;;;;;;;;;;;;6.42;82.92;98518.66;4926364;29;19915;-64
2023/02/02 12:29:03;;;;;;;;;;;;;;;6.47;82.61;98515.81;4935404;29;19922;-63
2023/02/02 12:31:34;;;;;;;;;;;;;;;6.51;82.59;98502.59;4937346;29;20001;-63
2023/02/02 12:34:06;;;;;;;;;;;;;;;6.41;82.23;98515.19;4938543;29;20013;-64
2023/02/02 12:36:41;;;;;;;;;;;;;;;6.48;83.31;98530.56;4934094;29;19914;-64
2023/02/02 12:39:21;;;;;;;;;;;;;;;6.46;82.66;98521.94;4932965;29;19957;-63
2023/02/02 12:42:08;;;;;;;;;;;;;;;6.37;82.75;98515.44;4924754;29;20398;-64
2023/02/02 12:44:42;;;;;;;;;;;;;;;6.25;83.33;98522.03;4910542;29;20328;-64
2023/02/02 12:47:16;;;;;;;;;;;;;;;6.29;83.44;98526.19;4930908;29;19925;-63
2023/02/02 12:49:41;;;;;;;;;;;;;;;6.29;83.95;98538.38;4934034;29;19970;-65
2023/02/02 12:52:22;;;;;;;;;;;;;;;6.25;84.07;98523.78;4925556;29;19919;-64
2023/02/02 12:55:02;;;;;;;;;;;;;;;6.21;84.05;98524.84;4934320;29;19923;-64
2023/02/02 12:57:43;;;;;;;;;;;;;;;6.24;82.85;98535.97;4925898;29;20007;-64
2023/02/02 13:00:27;;;;;;;;;;;;;;;6.26;83.17;98522.88;4942532;29;19915;-64
2023/02/02 13:02:58;;;;;;;;;;;;;;;6.41;83.14;98530.84;4933241;29;19923;-64
2023/02/02 13:05:28;;;;;;;;;;;;;;;6.48;83.14;98535.75;4926206;29;19929;-65
2023/02/02 13:07:57;;;;;;;;;;;;;;;6.47;82.79;98536.66;4932236;29;19918;-65
2023/02/02 13:10:23;;;;;;;;;;;;;;;6.41;83.81;98541.25;4934068;29;20367;-63